Mike Trout (CF/LF, LAA)

Avg
0.299
HR
21
wOBA
0.394
nERD
3.56

Most Recent Player News

Mike Trout blasted his 20th home run of the season last night in the fourth inning off of CC Sabathia. He was 1-for-3 with the home run, a walk, and a stolen base.

What It Means:

All together, it was a fantastic fantasy performance from Trout. He took advantage of his plus matchup against the shell of CC Sabathia. Trout is hitting .300 with a .407 wOBA and dazzling 170 wRC+. He's got the eighth best nERD of 3.41. Trout is a top fantasy option every night and can do it all: hit for contact, hit for power, and steal bases.

Posted on Tuesday, June 30th, 2015 at 10:13am EDT

Mike Trout Player Profile

Current Stats
Batting Average0.299
Hits90
SLUG0.575
OBP0.393
wOBA0.394
Statistical RankingsRank
Plate Appearances351#11
Runs60#3
Home Runs21#7
RBI45#33
Stolen Bases9#37
nERD3.56#7

Fantasy RankingsRank
Fantasy Score 9.72 #4
Projected Stats
Batting Average0.286
Hits167
SLUG0.542
OBP0.378
wOBA0.383
Statistical RankingsRank
Plate Appearances677#7
Runs109#1
Home Runs37#4
RBI94#15
Stolen Bases16#39
Batting Average0.286#32
OPS0.920#4

Fantasy RankingsRank
Fantasy Score 10.21 #4
Remaining This Season
Batting Average0.273
Hits77
SLUG0.507
OBP0.362
wOBA0.37
Statistical RankingsRank
Plate Appearances326#9
Runs49#2
Home Runs16#1
RBI49#3
Stolen Bases7#49
Batting Average0.273#26
OPS0.869#6

Fantasy RankingsRank
Fantasy Score 11.20 #2

Projections By Game

Date Opponent PA AB BB 1B 2B 3B HR R RBI SB HBP SO AVG
2015-04-06 Seattle 4.61 3.91 0.55 0.55 0.23 0.01 0.20 0.56 0.56 0.06 0.07 1.08 0.241
2015-04-07 Seattle 4.65 3.79 0.70 0.73 0.16 0.02 0.24 0.60 0.67 0.13 0.09 0.90 0.283
2015-04-08 Seattle 4.62 4.13 0.39 0.63 0.25 0.01 0.31 0.59 0.67 0.05 0.06 1.08 0.274
2015-04-10 Kansas City 4.59 4.00 0.52 0.62 0.34 0.01 0.25 0.66 0.69 0.07 0.05 0.84 0.285
2015-04-11 Kansas City 4.55 3.91 0.54 0.68 0.21 0.01 0.30 0.72 0.73 0.06 0.06 0.78 0.285
2015-04-12 Kansas City 4.57 3.80 0.64 0.56 0.22 0.02 0.22 0.63 0.56 0.07 0.08 0.84 0.242
2015-04-13 Texas 4.83 4.10 0.57 0.56 0.35 0.05 0.14 0.78 0.81 0.09 0.11 0.88 0.247
2015-04-14 Texas 4.90 4.16 0.55 0.70 0.17 0.04 0.31 0.93 1.02 0.11 0.11 0.86 0.271
2015-04-15 Texas 4.87 4.16 0.50 0.71 0.24 0.04 0.32 1.03 1.10 0.10 0.12 0.88 0.293
2015-04-17 Houston 4.86 3.97 0.75 0.60 0.26 0.05 0.23 0.80 0.77 0.10 0.06 0.75 0.262
2015-04-18 Houston 4.71 4.02 0.57 0.70 0.31 0.01 0.20 0.74 0.63 0.08 0.05 0.81 0.280
2015-04-19 Houston 4.78 4.09 0.56 0.69 0.33 0.03 0.26 0.82 0.88 0.07 0.04 0.71 0.296
2015-04-20 Oakland 4.57 3.82 0.59 0.58 0.24 0.03 0.24 0.66 0.62 0.11 0.09 0.94 0.264
2015-04-21 Oakland 4.54 3.87 0.54 0.62 0.27 0.03 0.26 0.66 0.68 0.18 0.05 0.79 0.281
2015-04-22 Oakland 4.50 3.86 0.47 0.67 0.18 0.02 0.17 0.61 0.46 0.08 0.11 0.86 0.248
2015-04-23 Oakland 4.54 3.85 0.48 0.56 0.22 0.02 0.29 0.71 0.80 0.12 0.11 0.91 0.265
2015-04-24 Texas 4.59 3.97 0.50 0.59 0.19 0.04 0.23 0.70 0.65 0.05 0.09 0.90 0.244
2015-04-25 Texas 4.58 3.90 0.53 0.66 0.19 0.04 0.25 0.66 0.68 0.12 0.08 0.70 0.271
2015-04-26 Texas 4.61 3.86 0.56 0.65 0.18 0.03 0.26 0.76 0.81 0.10 0.10 0.69 0.265
2015-04-28 Oakland 4.65 3.96 0.52 0.73 0.20 0.02 0.14 0.55 0.47 0.11 0.10 0.80 0.248
2015-04-29 Oakland 4.71 3.92 0.63 0.60 0.17 0.02 0.21 0.63 0.53 0.13 0.10 0.84 0.236
2015-04-30 Oakland 4.54 3.85 0.50 0.56 0.20 0.02 0.29 0.71 0.72 0.11 0.12 0.86 0.261
Date Opponent PA AB BB 1B 2B 3B HR R RBI SB HBP SO AVG
2015-05-01 San Francisco 4.59 3.81 0.61 0.76 0.26 0.04 0.26 0.72 0.71 0.13 0.11 0.73 0.317
2015-05-02 San Francisco 4.65 4.00 0.51 0.91 0.20 0.02 0.19 0.63 0.52 0.12 0.07 0.76 0.302
2015-05-03 San Francisco 4.73 3.92 0.62 0.59 0.26 0.03 0.23 0.62 0.57 0.13 0.12 0.89 0.265
2015-05-04 Seattle 4.46 3.90 0.48 0.59 0.22 0.00 0.15 0.47 0.53 0.06 0.03 1.09 0.226
2015-05-05 Seattle 4.48 3.66 0.69 0.67 0.16 0.05 0.16 0.67 0.54 0.16 0.07 0.89 0.262
2015-05-06 Seattle 4.55 3.74 0.64 0.48 0.25 0.10 0.17 0.59 0.65 0.08 0.09 0.94 0.245
2015-05-07 Houston 4.51 3.84 0.51 0.64 0.30 0.03 0.21 0.60 0.59 0.14 0.05 0.97 0.284
2015-05-08 Houston 4.55 3.76 0.64 0.65 0.25 0.02 0.24 0.67 0.59 0.11 0.09 0.70 0.290
2015-05-09 Houston 4.54 3.86 0.57 0.77 0.27 0.00 0.25 0.63 0.64 0.10 0.03 0.72 0.312
2015-05-10 Houston 4.53 3.89 0.55 0.82 0.22 0.01 0.29 0.74 0.75 0.09 0.04 0.66 0.319
2015-05-12 Colorado 4.57 3.79 0.69 0.66 0.18 0.04 0.26 0.74 0.65 0.13 0.05 0.72 0.278
2015-05-13 Colorado 4.58 3.85 0.61 0.67 0.30 0.01 0.26 0.78 0.73 0.12 0.07 0.75 0.302
2015-05-15 Baltimore 4.66 3.90 0.60 0.71 0.17 0.04 0.28 0.81 0.59 0.16 0.09 0.75 0.283
2015-05-16 Baltimore 4.77 3.94 0.69 0.48 0.18 0.05 0.28 0.75 0.61 0.13 0.11 0.80 0.233
2015-05-17 Baltimore 4.74 3.97 0.57 0.59 0.17 0.03 0.37 0.92 0.80 0.10 0.12 0.80 0.270
2015-05-18 Toronto 4.72 3.98 0.55 0.70 0.18 0.03 0.17 0.70 0.56 0.17 0.12 0.79 0.251
2015-05-19 Toronto 4.74 3.93 0.63 0.77 0.15 0.01 0.16 0.71 0.53 0.15 0.13 0.79 0.253
2015-05-20 Toronto 4.73 4.06 0.53 0.71 0.17 0.01 0.29 0.68 0.76 0.15 0.07 0.87 0.269
2015-05-21 Toronto 4.66 3.88 0.60 0.53 0.18 0.01 0.37 0.88 0.76 0.11 0.11 0.75 0.263
2015-05-22 Boston 4.73 4.08 0.44 0.75 0.18 0.01 0.41 1.01 0.92 0.13 0.13 0.75 0.305
2015-05-23 Boston 4.72 3.95 0.59 0.76 0.22 0.01 0.40 0.97 0.87 0.17 0.10 0.68 0.323
2015-05-24 Boston 4.78 4.05 0.62 0.77 0.26 0.03 0.24 0.78 0.72 0.20 0.05 0.64 0.291
2015-05-25 San Diego 4.50 3.76 0.62 0.61 0.21 0.04 0.15 0.53 0.48 0.16 0.06 0.80 0.244
2015-05-26 San Diego 4.54 3.90 0.55 0.80 0.20 0.02 0.19 0.59 0.58 0.16 0.04 0.71 0.284
2015-05-27 San Diego 4.46 3.91 0.47 0.76 0.25 0.04 0.13 0.59 0.46 0.13 0.02 0.74 0.274
2015-05-28 Detroit 4.56 3.86 0.59 0.62 0.19 0.03 0.29 0.77 0.64 0.07 0.06 0.70 0.269
2015-05-29 Detroit 4.51 3.94 0.50 0.70 0.24 0.02 0.25 0.67 0.60 0.15 0.02 0.69 0.280
2015-05-30 Detroit 4.49 3.87 0.49 0.75 0.20 0.03 0.16 0.49 0.46 0.12 0.09 0.80 0.265
2015-05-31 Detroit 4.47 3.87 0.53 0.62 0.25 0.02 0.29 0.67 0.57 0.12 0.04 0.80 0.281
Date Opponent PA AB BB 1B 2B 3B HR R RBI SB HBP SO AVG
2015-06-01 Tampa Bay 4.49 3.86 0.46 0.68 0.20 0.05 0.23 0.63 0.66 0.11 0.08 0.70 0.277
2015-06-02 Tampa Bay 4.42 3.84 0.46 0.72 0.21 0.00 0.14 0.55 0.39 0.11 0.05 0.74 0.251
2015-06-03 Tampa Bay 4.54 3.80 0.56 0.63 0.19 0.04 0.21 0.71 0.59 0.14 0.14 0.83 0.256
2015-06-05 N.Y. Yankees 4.67 4.11 0.50 0.73 0.21 0.00 0.31 0.75 0.76 0.08 0.02 0.93 0.278
2015-06-06 N.Y. Yankees 4.70 4.16 0.43 0.75 0.18 0.02 0.22 0.63 0.59 0.11 0.04 0.95 0.256
2015-06-07 N.Y. Yankees 4.66 4.26 0.35 0.55 0.25 0.02 0.22 0.78 0.63 0.14 0.03 0.83 0.226
2015-06-09 Tampa Bay 4.69 3.90 0.61 0.60 0.26 0.05 0.29 0.77 0.69 0.12 0.14 0.84 0.282
2015-06-10 Tampa Bay 4.74 3.97 0.60 0.71 0.22 0.03 0.26 0.72 0.71 0.10 0.11 0.76 0.279
2015-06-11 Tampa Bay 4.71 4.06 0.47 0.67 0.20 0.02 0.34 0.75 0.80 0.11 0.11 0.79 0.277
2015-06-12 Oakland 4.48 3.87 0.47 0.67 0.30 0.02 0.27 0.66 0.70 0.11 0.07 0.78 0.295
2015-06-13 Oakland 4.54 3.94 0.47 0.72 0.25 0.01 0.30 0.67 0.73 0.10 0.11 0.64 0.293
2015-06-14 Oakland 4.46 3.92 0.44 0.78 0.22 0.01 0.19 0.53 0.57 0.12 0.05 0.73 0.277
2015-06-15 Arizona 4.52 3.87 0.54 0.59 0.28 0.05 0.25 0.66 0.76 0.18 0.08 0.68 0.276
2015-06-16 Arizona 4.40 3.80 0.48 0.64 0.32 0.00 0.24 0.66 0.68 0.11 0.09 0.63 0.287
2015-06-17 Arizona 4.63 3.95 0.55 0.75 0.26 0.04 0.23 0.79 0.74 0.15 0.08 0.74 0.293
2015-06-18 Arizona 4.67 4.04 0.52 0.64 0.29 0.03 0.28 0.84 1.00 0.12 0.08 0.76 0.281
2015-06-19 Oakland 4.56 3.95 0.49 0.78 0.22 0.01 0.19 0.53 0.51 0.13 0.07 0.78 0.274
2015-06-20 Oakland 4.58 3.95 0.50 0.66 0.21 0.01 0.18 0.54 0.50 0.07 0.05 0.83 0.244
2015-06-21 Oakland 4.56 4.01 0.49 0.70 0.24 0.05 0.20 0.54 0.56 0.17 0.02 0.69 0.271
2015-06-22 Houston 4.40 3.74 0.62 0.67 0.22 0.00 0.31 0.69 0.62 0.12 0.02 0.59 0.296
2015-06-23 Houston 4.36 3.71 0.54 0.64 0.27 0.03 0.24 0.74 0.68 0.11 0.05 0.74 0.289
2015-06-24 Houston 4.39 3.77 0.55 0.68 0.20 0.00 0.20 0.60 0.57 0.13 0.05 0.82 0.267
2015-06-26 Seattle 4.42 3.78 0.49 0.63 0.19 0.06 0.30 0.70 0.70 0.12 0.11 0.78 0.292
2015-06-27 Seattle 4.39 3.75 0.54 0.66 0.21 0.03 0.27 0.70 0.65 0.10 0.06 0.72 0.289
2015-06-28 Seattle 4.38 3.78 0.55 0.63 0.18 0.01 0.19 0.55 0.54 0.07 0.03 0.92 0.247
2015-06-29 N.Y. Yankees 4.39 3.98 0.33 0.68 0.15 0.03 0.31 0.66 0.67 0.09 0.03 0.80 0.273
2015-06-30 N.Y. Yankees 4.45 3.86 0.53 0.71 0.23 0.01 0.26 0.68 0.69 0.05 0.00 0.63 0.290
Date Opponent PA AB BB 1B 2B 3B HR R RBI SB HBP SO AVG
2015-07-01 N.Y. Yankees 4.34 3.82 0.44 0.70 0.25 0.02 0.28 0.64 0.78 0.09 0.00 0.81 0.305
2015-07-03 Texas 4.70 3.82 0.66 0.61 0.29 0.03 0.21 0.77 0.78 0.15 0.12 0.82 0.277
2015-07-04 Texas 4.67 3.95 0.61 0.67 0.30 0.03 0.24 0.81 0.68 0.18 0.09 0.74 0.291
2015-07-05 Texas 4.60 3.90 0.54 0.67 0.22 0.02 0.27 0.89 0.80 0.15 0.09 0.76 0.282
2015-07-07 Colorado 4.74 4.05 0.57 0.71 0.35 0.02 0.20 0.96 1.08 0.10 0.08 0.74 0.297
2015-07-08 Colorado 4.74 4.09 0.56 0.61 0.37 0.03 0.18 0.87 0.88 0.15 0.08 0.84 0.274
2015-07-09 Seattle 4.48 3.88 0.52 0.70 0.19 0.01 0.19 0.52 0.47 0.07 0.07 0.90 0.262
2015-07-10 Seattle 4.58 3.90 0.61 0.67 0.23 0.02 0.17 0.48 0.51 0.11 0.02 0.83 0.257
2015-07-11 Seattle 4.54 3.73 0.64 0.63 0.24 0.05 0.29 0.77 0.60 0.11 0.10 0.69 0.302
2015-07-12 Seattle 4.54 3.79 0.56 0.58 0.19 0.06 0.28 0.64 0.62 0.09 0.13 0.95 0.278

Statlines By Game

Date Opponent PA AB BB 1B 2B 3B HR R RBI SB HBP SO AVG
2015-04-06 Seattle 4 4 0 0 0 0 1 1 1 0 0 3 0.250
2015-04-07 Seattle 4 4 0 0 1 0 0 0 0 0 0 1 0.250
2015-04-08 Seattle 5 3 1 1 0 0 0 1 1 0 0 1 0.333
2015-04-10 Kansas City 4 3 1 2 0 0 0 0 0 0 0 0 0.667
2015-04-11 Kansas City 4 4 0 2 0 0 0 0 1 0 0 0 0.500
2015-04-12 Kansas City 3 2 1 1 0 0 0 1 0 0 0 1 0.500
2015-04-13 Texas 5 4 1 2 0 0 0 2 0 1 0 0 0.500
2015-04-14 Texas 4 4 0 0 1 0 0 0 0 0 0 0 0.250
2015-04-15 Texas 5 4 1 3 0 0 0 2 1 1 0 0 0.750
2015-04-17 Houston 4 4 0 0 0 0 2 2 5 0 0 1 0.500
2015-04-18 Houston 4 4 0 0 0 0 0 0 0 0 0 2 0.000
2015-04-19 Houston 4 4 0 0 0 0 0 0 0 0 0 1 0.000
2015-04-20 Oakland 4 4 0 1 0 0 0 2 0 1 0 0 0.250
2015-04-21 Oakland 5 3 2 0 1 0 0 2 0 0 0 2 0.333
2015-04-22 Oakland 4 3 1 0 0 0 0 0 0 0 0 1 0.000
2015-04-23 Oakland 4 3 1 0 0 0 0 0 0 1 0 1 0.000
2015-04-24 Texas 4 3 1 1 0 0 0 1 0 1 0 0 0.333
2015-04-25 Texas 4 2 1 1 0 0 0 1 0 0 1 1 0.500
2015-04-26 Texas 6 4 2 0 0 0 1 1 2 0 0 1 0.250
2015-04-28 Oakland 4 4 0 0 0 0 0 0 0 0 0 3 0.000
2015-04-29 Oakland 4 3 1 0 1 0 1 2 3 0 0 1 0.667
2015-04-30 Oakland 5 3 2 1 1 0 0 2 0 1 0 1 0.667
Date Opponent PA AB BB 1B 2B 3B HR R RBI SB HBP SO AVG
2015-05-01 San Francisco 4 4 0 0 1 0 0 0 0 0 0 2 0.250
2015-05-02 San Francisco 4 4 0 1 0 0 1 2 1 0 0 0 0.500
2015-05-03 San Francisco 4 4 0 0 0 0 0 0 0 0 0 1 0.000
2015-05-04 Seattle 4 4 0 1 0 0 0 0 0 0 0 2 0.250
2015-05-05 Seattle 4 4 0 0 0 0 0 0 0 0 0 1 0.000
2015-05-06 Seattle 4 4 0 0 0 0 1 1 2 0 0 0 0.250
2015-05-07 Houston 4 4 0 0 0 0 1 1 1 0 0 1 0.250
2015-05-08 Houston 4 3 0 0 0 0 0 0 0 1 1 1 0.000
2015-05-09 Houston 5 4 1 2 0 0 1 2 1 0 0 0 0.750
2015-05-10 Houston 4 3 1 1 0 0 0 0 0 0 0 0 0.333
2015-05-12 Colorado 4 3 0 0 0 0 0 0 0 0 1 0 0.000
2015-05-13 Colorado 5 4 1 0 0 0 0 1 0 0 0 1 0.000
2015-05-15 Baltimore 4 4 0 1 0 0 0 0 0 0 0 2 0.250
2015-05-16 Baltimore 5 5 0 2 0 0 1 1 2 0 0 1 0.600
2015-05-17 Baltimore 4 4 0 0 0 0 0 0 0 0 0 1 0.000
2015-05-18 Toronto 5 5 0 0 0 0 0 0 0 0 0 2 0.000
2015-05-19 Toronto 4 4 0 1 0 0 0 0 0 0 0 0 0.250
2015-05-20 Toronto 5 3 2 1 0 0 1 3 1 0 0 1 0.667
2015-05-21 Toronto 4 3 1 1 1 0 0 2 0 0 0 0 0.667
2015-05-22 Boston 6 6 0 3 0 0 0 1 1 1 0 1 0.500
2015-05-23 Boston 4 4 0 1 0 0 0 0 1 0 0 1 0.250
2015-05-24 Boston 4 4 0 0 1 0 0 0 1 0 0 0 0.250
2015-05-25 San Diego 5 4 1 0 1 0 0 0 0 0 0 2 0.250
2015-05-26 San Diego 4 4 0 0 0 0 0 0 0 0 0 1 0.000
2015-05-27 San Diego 4 4 0 1 1 0 0 1 0 0 0 0 0.500
2015-05-28 Detroit 4 4 0 0 1 0 0 1 0 0 0 0 0.250
2015-05-29 Detroit 4 4 0 1 0 0 0 0 0 0 0 1 0.250
2015-05-30 Detroit 4 3 1 0 0 0 1 2 1 0 0 0 0.333
2015-05-31 Detroit 4 4 0 1 0 0 0 0 1 0 0 1 0.250
Date Opponent PA AB BB 1B 2B 3B HR R RBI SB HBP SO AVG
2015-06-01 Tampa Bay 5 4 1 0 0 0 1 1 3 0 0 2 0.250
2015-06-02 Tampa Bay 4 4 0 0 0 0 0 0 0 0 0 3 0.000
2015-06-03 Tampa Bay 5 3 2 0 0 0 1 1 1 0 0 1 0.333
2015-06-05 N.Y. Yankees 4 3 1 0 0 0 0 0 0 0 0 0 0.000
2015-06-06 N.Y. Yankees 4 4 0 0 0 0 1 1 1 0 0 2 0.250
2015-06-07 N.Y. Yankees 4 4 0 0 0 0 1 1 1 0 0 2 0.250
2015-06-09 Tampa Bay 5 5 0 2 0 0 0 2 0 0 0 0 0.400
2015-06-10 Tampa Bay 4 4 0 1 0 0 0 0 1 0 0 2 0.250
2015-06-11 Tampa Bay 5 5 0 1 1 0 1 1 2 0 0 1 0.600
2015-06-12 Oakland 4 3 1 2 0 0 1 2 1 0 0 0 1.000
2015-06-13 Oakland 4 4 0 1 0 0 0 0 0 0 0 0 0.250
2015-06-14 Oakland 3 3 0 0 0 0 0 0 0 0 0 1 0.000
2015-06-15 Arizona 4 3 1 0 1 0 0 0 2 0 0 1 0.333
2015-06-16 Arizona 4 3 1 1 0 0 0 1 0 0 0 1 0.333
2015-06-17 Arizona 4 4 0 0 1 0 0 0 0 0 0 2 0.250
2015-06-18 Arizona 4 4 0 0 1 1 0 1 1 0 0 1 0.500
2015-06-19 Oakland 5 4 0 0 1 0 0 2 1 0 0 1 0.250
2015-06-20 Oakland 4 2 2 1 0 0 0 1 0 0 0 0 0.500
2015-06-21 Oakland 4 4 0 2 0 0 0 0 0 0 0 1 0.500
2015-06-22 Houston 4 3 1 0 0 0 0 1 0 0 0 3 0.000
2015-06-23 Houston 3 3 0 0 1 0 0 0 0 0 0 2 0.333
2015-06-24 Houston 6 4 1 0 0 0 0 0 0 0 1 2 0.000
2015-06-26 Seattle 4 4 0 2 0 0 1 1 1 0 0 1 0.750
2015-06-27 Seattle 4 3 1 0 1 0 0 1 0 0 0 1 0.333
2015-06-28 Seattle 5 3 2 0 0 0 0 0 0 0 0 2 0.000
2015-06-29 N.Y. Yankees 4 3 1 0 0 0 1 1 1 1 0 1 0.333
2015-06-30 N.Y. Yankees 4 4 0 2 0 0 0 0 0 0 0 1 0.500
Date Opponent PA AB BB 1B 2B 3B HR R RBI SB HBP SO AVG
2015-07-01 N.Y. Yankees 4 3 1 0 0 0 1 1 1 0 0 1 0.333
2015-07-03 Texas 5 4 1 1 0 0 0 1 0 0 0 1 0.250
2015-07-04 Texas 5 3 1 0 0 0 0 1 0 0 1 1 0.000
2015-07-05 Texas 5 4 0 1 0 0 0 1 1 0 1 1 0.250

DFS Performance

  DraftKings FanDuel FantasyFeud DraftDay FantasyAces Draftster FantasyScore
Date Opponent FP Value FP Value FP Value FP Value FP Value FP Value FP Value
2015-04-06 Seattle 14 2.7 5.25 1 4.5 0 27 2.5 5 0.8 3.75 0.4 6 0.9
2015-04-07 Seattle 5 1 1.25 0.2 -1 -0.1 7 0.7 1.5 0.3 1.25 0.1 2 0.3
2015-04-08 Seattle 9 1.7 3.5 0.7 3 0.3 18 1.6 4 0.7 3.25 0.4 4 0.6
2015-04-10 Kansas City 8 1.6 2.75 0.5 1.5 0.2 14 1.1 3 0.5 3 0.3 3 0.5
2015-04-11 Kansas City 8 1.4 2.5 0.5 2 0.2 13 1.1 3.25 0.5 3 0.3 3 0.5
2015-04-12 Kansas City 7 1.1 2.75 0.6 2 0.2 14 1.1 2.75 0.5 2.25 0.3 3 0.5
2015-04-13 Texas 17 2.6 6.5 1.3 5.5 0.6 28 2.3 7.5 1.3 7 0.8 7 1.1
2015-04-14 Texas 5 0.8 1.25 0.3 -1 -0.1 7 0.6 2 0.3 2 0.2 2 0.3
2015-04-15 Texas 22 3.5 8.75 1.6 9.5 1.1 39 3.2 9.75 1.7 9 2.9 9 1.4
2015-04-17 Houston 34 5.9 14.5 2.5 19 2.1 73 6 16.25 2.8 14.25 1.6 15 2.3
2015-04-18 Houston 0 0 -1 -0.2 -4 -0.4 -4 -0.3 -1 -0.2 -1.5 -0.2 0 0
2015-04-19 Houston 0 0 -1 -0.2 -4 -0.4 -4 -0.3 -0.5 -0.1 -0.75 -0.1 0 0
2015-04-20 Oakland 12 2.1 4.25 0.7 3 0.3 17 1.4 5.5 0.9 5 0.6 5 0.8
2015-04-21 Oakland 13 2.4 5.5 1 4 0.4 28 2.3 5.5 0.9 4.5 0.5 6 0.9
2015-04-22 Oakland 2 0.4 0.25 0 -2.5 -0.3 2 0.2 0.5 0.1 0.25 0 1 0.2
2015-04-23 Oakland 7 1.3 2.25 0.4 -0.5 -0.1 7 0.6 2.5 0.4 2.25 0.3 3 0.5
2015-04-24 Texas 12 2.2 4.5 0.8 3 0.3 18 1.5 5.25 0.9 5 0.6 5 0.8
2015-04-25 Texas 9 1.7 3.75 0.7 2.5 0.3 19 1.6 3.25 0.5 3.25 0.4 4 0.6
2015-04-26 Texas 20 3.6 8.25 1.6 7.5 0.8 42 3.4 9.25 1.5 8.25 1 9 1.4
2015-04-28 Oakland 0 0 -1 -0.2 -4 -0.4 -4 -0.3 -1.5 -0.3 -2.25 -0.3 0 0
2015-04-29 Oakland 27 4.8 11.75 2.2 14.5 1.5 59 4.7 12.75 2.1 11.25 1.3 12 1.9
2015-04-30 Oakland 21 4 8.75 1.7 8 0.8 39 3.3 9 1.5 8.25 1 9 1.4
  DraftKings FanDuel FantasyFeud DraftDay FantasyAces Draftster FantasyScore
Date Opponent FP Value FP Value FP Value FP Value FP Value FP Value FP Value
2015-05-01 San Francisco 5 1 1.25 0.2 -1 -0.1 7 0.5 1 0.2 0.5 0.1 2 0.3
2015-05-02 San Francisco 19 3.7 7.5 1.3 8 0.9 38 2.7 8.75 1.5 8 0.9 8 1.3
2015-05-03 San Francisco 0 0 -1 -0.2 -4 -0.4 -4 -0.3 -0.5 -0.1 -0.75 -0.1 0 0
2015-05-04 Seattle 3 0.6 0.25 0 -2 -0.2 2 0.1 0 0 -0.5 -0.1 1 0.2
2015-05-05 Seattle 0 0 -1 -0.2 -4 -0.4 -4 -0.3 -0.5 -0.1 -0.75 -0.1 0 0
2015-05-06 Seattle 16 3.1 6.25 1.2 6.5 0.6 32 2.5 7.75 1.3 7 0.8 7 1.1
2015-05-07 Houston 14 2.7 5.25 1 4.5 0.4 27 2.1 6 1 5.25 0.6 6 0.9
2015-05-08 Houston 7 1.3 2.25 0.4 -0.5 -0.1 7 0.6 2 0.3 2.25 0.3 3 0.5
2015-05-09 Houston 24 4.4 9.75 1.8 10.5 1.1 49 4 10.75 1.8 10 1.2 10 1.6
2015-05-10 Houston 3 0.5 1.5 0.3 -1.5 -0.1 8 0.6 2 0.3 0 0 1 0.2
2015-05-12 Colorado 2 0.4 0.25 0 -2.5 -0.3 2 0.2 0.5 0.1 1 0.1 1 0.2
2015-05-13 Colorado 4 0.8 1 0.2 -2 -0.2 6 0.5 1.75 0.3 1.25 0.1 2 0.3
2015-05-15 Baltimore 3 0.6 0.25 0 -2 -0.2 2 0.2 0 0 -0.5 -0.1 1 0.2
2015-05-16 Baltimore 20 3.8 8.5 1.6 8.5 1 43 3.5 9.25 1.5 6.25 0.7 8 1.3
2015-05-17 Baltimore 0 0 -1 -0.2 -4 -0.4 -4 -0.3 -0.5 -0.1 -0.75 -0.1 0 0
2015-05-18 Toronto 0 0 -1.25 -0.2 -5 -0.5 -5 -0.4 -1 -0.2 -1.5 -0.2 0 0
2015-05-19 Toronto 3 0.6 0.25 0 -2 -0.2 2 0.2 1 0.2 1 0.1 1 0.2
2015-05-20 Toronto 25 4.4 10.75 2.1 11.5 1.3 54 5 11.5 2 10.25 1.2 11 1.7
2015-05-21 Toronto 14 2.6 5.75 1.2 5.5 0.6 29 2.7 6.5 1.1 6 0.7 6 0.9
2015-05-22 Boston 18 3.2 6.25 1.2 5.5 0.6 27 2.5 7 1.2 6.25 0.7 7 1.1
2015-05-23 Boston 5 0.9 1.25 0.2 0 0 7 0.6 1.75 0.3 1.25 0.1 2 0.3
2015-05-24 Boston 7 1.3 2.25 0.4 1 0.1 12 1.1 3.25 0.5 3 0.3 3 0.5
2015-05-25 San Diego 7 1.3 2.25 0.4 -0.5 -0.1 12 1.1 2 0.3 1.5 0.2 3 0.5
2015-05-26 San Diego 0 0 -1 -0.2 -4 -0.4 -4 -0.4 -0.5 -0.1 -0.75 -0.1 0 0
2015-05-27 San Diego 10 1.9 3.5 0.7 2.5 0.3 18 1.6 4.25 0.7 4 0.5 4 0.6
2015-05-28 Detroit 7 1.3 2.25 0.5 0.5 0.1 12 1.1 3.25 0.5 3 0.4 3 0.5
2015-05-29 Detroit 1 0.2 0.25 0.1 -3 -0.3 2 0.2 0.5 0.1 -1.75 -0.2 0 0
2015-05-30 Detroit 18 3.3 7.5 1.5 7.5 0.8 38 3.4 8.75 1.5 8 1 8 1.3
2015-05-31 Detroit 5 1 1.25 0.3 0 0 7 0.6 1.75 0.3 1.25 0.1 2 0.3
  DraftKings FanDuel FantasyFeud DraftDay FantasyAces Draftster FantasyScore
Date Opponent FP Value FP Value FP Value FP Value FP Value FP Value FP Value
2015-06-01 Tampa Bay 20 3.7 8.25 1.7 9 0.9 42 3.9 9 1.5 7.5 0.9 9 1.4
2015-06-02 Tampa Bay 0 0 -1 -0.2 -4 -0.4 -4 -0.4 -1.5 -0.3 -2.25 -0.3 0 0
2015-06-03 Tampa Bay 18 3.6 7.5 1.5 6.5 0.7 38 3.5 8 1.3 7.25 0.9 8 1.3
2015-06-05 N.Y. Yankees 2 0.4 0.25 0 -2.5 -0.3 2 0.2 1 0.2 1 0.1 1 0.2
2015-06-06 N.Y. Yankees 14 2.5 5.25 1 4.5 0.5 27 2.4 5.5 0.9 4.5 0.5 6 1
2015-06-07 N.Y. Yankees 14 2.8 5.25 1.1 4.5 0.5 27 2.4 5.5 0.9 4.5 0.5 6 1
2015-06-09 Tampa Bay 10 1.9 3.25 0.7 2 0.2 17 1.4 4.5 0.8 4 0.5 4 0.6
2015-06-10 Tampa Bay 5 0.9 1.25 0.3 0 0 7 0.6 1.25 0.2 0.5 0.1 2 0.3
2015-06-11 Tampa Bay 24 4.4 9.5 1.9 10.5 1.1 48 4 10.25 1.7 9.25 1.1 10 1.6
2015-06-12 Oakland 24 4.7 10 2 11.5 1.2 50 4.3 10.75 1.8 10 1.2 10 1.6
2015-06-13 Oakland 3 0.6 0.25 0 -2 -0.2 2 0.2 1 0.2 1 0.1 1 0.2
2015-06-14 Oakland 0 0 -0.75 -0.1 -3 -0.3 -3 -0.2 -0.5 -0.1 -0.75 -0.1 0 0
2015-06-15 Arizona 11 1.9 4.5 0.9 4.5 0.5 23 1.8 5 0.8 4.25 0.5 5 0.8
2015-06-16 Arizona 7 1.3 2.5 0.5 1 0.1 13 1.1 2.75 0.5 2.25 0.3 3 0.5
2015-06-17 Arizona 5 0.9 1.25 0.2 -1 -0.1 7 0.6 1 0.2 0.5 0.1 2 0.3
2015-06-18 Arizona 17 3.3 6.5 1.3 6.5 0.7 33 2.8 7 1.2 6.25 0.7 7 1.1
2015-06-19 Oakland 11 2.2 4.25 0.8 4 0.4 22 1.9 5.25 0.9 4.25 0.5 5 0.8
2015-06-20 Oakland 9 1.6 3.75 0.7 2.5 0.3 19 1.6 4.25 0.7 4 0.5 4 0.6
2015-06-21 Oakland 6 1.1 1.5 0.3 0 0 8 0.7 1.5 0.3 1.25 0.2 2 0.3
2015-06-22 Houston 4 0.8 1.25 0.2 -1 -0.1 7 0.6 0.75 0.1 -0.25 -0 2 0.3
2015-06-23 Houston 5 1 1.5 0.3 0 0 8 0.7 1 0.2 0.5 0.1 2 0.3
2015-06-24 Houston 4 0.7 1 0.2 -3 -0.3 6 0.5 0.5 0.1 0.5 0.1 2 0.3
2015-06-26 Seattle 20 3.9 7.75 1.6 8.5 1 39 3.5 8 1.4 7.25 0.9 8 1.3
2015-06-27 Seattle 9 1.7 3.5 0.7 2 0.2 18 1.6 3.75 0.6 3.25 0.4 4 0.6
2015-06-28 Seattle 4 0.8 1.25 0.3 -2 -0.2 7 0.6 1 0.2 0.5 0.1 2 0.3
2015-06-29 N.Y. Yankees 21 4.3 8.5 1.7 8 0.8 38 3.3 9 1.5 8.25 1 9 1.4
2015-06-30 N.Y. Yankees 4 0.8 1.5 0.3 -1 -0.1 8 0.7 1.5 0.3 -0.75 -0.1 1 0.2
  DraftKings FanDuel FantasyFeud DraftDay FantasyAces Draftster FantasyScore
Date Opponent FP Value FP Value FP Value FP Value FP Value FP Value FP Value
2015-07-01 N.Y. Yankees 16 2.9 6.5 1.3 6 0.7 33 2.9 7 1.2 6.25 0.7 7 1.1
2015-07-03 Texas 7 1.2 2.25 0.4 0 0 12 1 2.75 0.5 2.25 0.3 3 0.5
2015-07-04 Texas 6 1.1 2.25 0.4 -0.5 -0.1 12 1 2.25 0.4 2.25 0.3 3 0.5
2015-07-05 Texas 9 1.7 3.25 0.7 2 0.2 17 1.4 3.5 0.6 3.25 0.4 4 0.6

Player History

Year Age Team G PA H HR RBI SB BA
2015 23 L.A. Angels 82 351 90 21 45 9 0.299
2014 22 L.A. Angels 157 705 173 36 111 16 0.287
2013 21 L.A. Angels 157 716 190 27 97 33 0.323
2012 20 L.A. Angels 139 639 182 30 83 49 0.326
2011 19 L.A. Angels 40 135 27 5 16 4 0.220
Similar Players

Similar Players

Sorry! We don't enough data on this player to make significant comparisons. This is likely due to the fact that this player is new to the league, or is an unknown commodity in terms of talent.